sensor_id;sensor_type;location;lat;lon;timestamp;P1;durP1;ratioP1;P2;durP2;ratioP2
20729;SDS011;10526;50.850;12.928;2022-11-15T00:02:27;27.55;;;15.30;;
20729;SDS011;10526;50.850;12.928;2022-11-15T00:07:08;27.88;;;14.75;;
20729;SDS011;10526;50.850;12.928;2022-11-15T00:12:05;28.38;;;14.40;;
20729;SDS011;10526;50.850;12.928;2022-11-15T00:16:46;26.17;;;15.13;;
20729;SDS011;10526;50.850;12.928;2022-11-15T00:21:26;27.63;;;14.18;;
20729;SDS011;10526;50.850;12.928;2022-11-15T00:26:10;32.53;;;15.90;;
20729;SDS011;10526;50.850;12.928;2022-11-15T00:30:53;28.45;;;15.30;;
20729;SDS011;10526;50.850;12.928;2022-11-15T00:35:34;35.05;;;15.75;;
20729;SDS011;10526;50.850;12.928;2022-11-15T00:40:15;36.67;;;16.35;;
20729;SDS011;10526;50.850;12.928;2022-11-15T00:44:55;35.17;;;17.05;;
20729;SDS011;10526;50.850;12.928;2022-11-15T00:49:36;28.88;;;16.20;;
20729;SDS011;10526;50.850;12.928;2022-11-15T00:54:17;32.70;;;16.23;;
20729;SDS011;10526;50.850;12.928;2022-11-15T00:58:58;30.48;;;17.80;;
20729;SDS011;10526;50.850;12.928;2022-11-15T01:03:39;29.65;;;14.95;;
20729;SDS011;10526;50.850;12.928;2022-11-15T01:08:21;29.77;;;15.82;;
20729;SDS011;10526;50.850;12.928;2022-11-15T01:13:01;31.02;;;15.43;;
20729;SDS011;10526;50.850;12.928;2022-11-15T01:17:42;30.50;;;15.18;;
20729;SDS011;10526;50.850;12.928;2022-11-15T01:22:22;27.63;;;14.88;;
20729;SDS011;10526;50.850;12.928;2022-11-15T01:27:03;32.03;;;15.98;;
20729;SDS011;10526;50.850;12.928;2022-11-15T01:31:44;32.10;;;14.98;;
20729;SDS011;10526;50.850;12.928;2022-11-15T01:36:25;28.67;;;14.68;;
20729;SDS011;10526;50.850;12.928;2022-11-15T01:41:06;27.45;;;14.23;;
20729;SDS011;10526;50.850;12.928;2022-11-15T01:45:54;27.48;;;14.55;;
20729;SDS011;10526;50.850;12.928;2022-11-15T01:50:55;31.02;;;15.18;;
20729;SDS011;10526;50.850;12.928;2022-11-15T01:55:36;27.00;;;14.07;;
20729;SDS011;10526;50.850;12.928;2022-11-15T02:00:17;28.27;;;14.68;;
20729;SDS011;10526;50.850;12.928;2022-11-15T02:04:58;29.75;;;14.68;;
20729;SDS011;10526;50.850;12.928;2022-11-15T02:09:39;29.60;;;14.20;;
20729;SDS011;10526;50.850;12.928;2022-11-15T02:14:20;30.35;;;15.40;;
20729;SDS011;10526;50.850;12.928;2022-11-15T02:19:10;27.90;;;15.32;;
20729;SDS011;10526;50.850;12.928;2022-11-15T02:44:51;26.35;;;12.75;;
20729;SDS011;10526;50.850;12.928;2022-11-15T02:49:35;29.50;;;13.73;;
20729;SDS011;10526;50.850;12.928;2022-11-15T02:54:19;23.45;;;13.07;;
20729;SDS011;10526;50.850;12.928;2022-11-15T03:04:28;23.45;;;12.48;;
20729;SDS011;10526;50.850;12.928;2022-11-15T03:14:24;27.05;;;13.07;;
20729;SDS011;10526;50.850;12.928;2022-11-15T03:19:16;25.00;;;12.70;;
20729;SDS011;10526;50.850;12.928;2022-11-15T03:24:12;22.95;;;11.88;;
20729;SDS011;10526;50.850;12.928;2022-11-15T03:29:03;26.23;;;12.85;;
20729;SDS011;10526;50.850;12.928;2022-11-15T03:33:59;29.25;;;14.50;;
20729;SDS011;10526;50.850;12.928;2022-11-15T03:38:43;30.40;;;15.13;;
20729;SDS011;10526;50.850;12.928;2022-11-15T03:48:30;27.45;;;13.70;;
20729;SDS011;10526;50.850;12.928;2022-11-15T03:53:19;27.08;;;14.63;;
20729;SDS011;10526;50.850;12.928;2022-11-15T03:58:00;30.58;;;14.65;;
20729;SDS011;10526;50.850;12.928;2022-11-15T04:02:41;31.88;;;15.68;;
20729;SDS011;10526;50.850;12.928;2022-11-15T04:07:21;30.77;;;15.32;;
20729;SDS011;10526;50.850;12.928;2022-11-15T04:12:03;29.85;;;14.07;;
20729;SDS011;10526;50.850;12.928;2022-11-15T04:16:44;31.42;;;14.18;;
20729;SDS011;10526;50.850;12.928;2022-11-15T04:21:24;24.70;;;13.25;;
20729;SDS011;10526;50.850;12.928;2022-11-15T04:26:24;29.13;;;13.63;;
20729;SDS011;10526;50.850;12.928;2022-11-15T04:31:05;26.42;;;12.35;;
20729;SDS011;10526;50.850;12.928;2022-11-15T04:35:46;24.70;;;12.88;;
20729;SDS011;10526;50.850;12.928;2022-11-15T04:40:46;26.08;;;12.80;;
20729;SDS011;10526;50.850;12.928;2022-11-15T04:45:27;26.20;;;12.77;;
20729;SDS011;10526;50.850;12.928;2022-11-15T04:50:08;24.58;;;11.23;;
20729;SDS011;10526;50.850;12.928;2022-11-15T04:54:48;22.55;;;11.07;;
20729;SDS011;10526;50.850;12.928;2022-11-15T04:59:29;22.05;;;11.15;;
20729;SDS011;10526;50.850;12.928;2022-11-15T05:04:10;20.63;;;10.45;;
20729;SDS011;10526;50.850;12.928;2022-11-15T05:09:00;23.95;;;11.02;;
20729;SDS011;10526;50.850;12.928;2022-11-15T05:13:41;19.73;;;10.38;;
20729;SDS011;10526;50.850;12.928;2022-11-15T05:18:22;20.98;;;9.43;;
20729;SDS011;10526;50.850;12.928;2022-11-15T05:23:04;19.75;;;10.10;;
20729;SDS011;10526;50.850;12.928;2022-11-15T05:27:45;22.60;;;9.68;;
20729;SDS011;10526;50.850;12.928;2022-11-15T05:32:25;19.73;;;9.23;;
20729;SDS011;10526;50.850;12.928;2022-11-15T05:37:06;19.55;;;9.52;;
20729;SDS011;10526;50.850;12.928;2022-11-15T05:41:48;19.60;;;10.00;;
20729;SDS011;10526;50.850;12.928;2022-11-15T05:46:37;20.95;;;10.13;;
20729;SDS011;10526;50.850;12.928;2022-11-15T05:51:19;20.23;;;9.73;;
20729;SDS011;10526;50.850;12.928;2022-11-15T05:56:02;20.98;;;10.57;;
20729;SDS011;10526;50.850;12.928;2022-11-15T06:00:46;19.73;;;9.18;;
20729;SDS011;10526;50.850;12.928;2022-11-15T06:05:26;21.42;;;10.40;;
20729;SDS011;10526;50.850;12.928;2022-11-15T06:10:07;25.55;;;10.80;;
20729;SDS011;10526;50.850;12.928;2022-11-15T06:14:49;21.33;;;10.32;;
20729;SDS011;10526;50.850;12.928;2022-11-15T06:19:29;20.15;;;10.07;;
20729;SDS011;10526;50.850;12.928;2022-11-15T06:24:12;27.20;;;11.57;;
20729;SDS011;10526;50.850;12.928;2022-11-15T06:28:53;22.08;;;11.93;;
20729;SDS011;10526;50.850;12.928;2022-11-15T06:33:34;21.55;;;11.38;;
20729;SDS011;10526;50.850;12.928;2022-11-15T06:38:16;21.35;;;10.15;;
20729;SDS011;10526;50.850;12.928;2022-11-15T06:42:57;23.42;;;11.77;;
20729;SDS011;10526;50.850;12.928;2022-11-15T06:47:47;26.77;;;11.65;;
20729;SDS011;10526;50.850;12.928;2022-11-15T06:52:28;23.15;;;10.95;;
20729;SDS011;10526;50.850;12.928;2022-11-15T06:57:12;21.80;;;11.35;;
20729;SDS011;10526;50.850;12.928;2022-11-15T07:01:53;21.98;;;11.30;;
20729;SDS011;10526;50.850;12.928;2022-11-15T07:06:34;24.80;;;11.60;;
20729;SDS011;10526;50.850;12.928;2022-11-15T07:11:14;21.05;;;11.43;;
20729;SDS011;10526;50.850;12.928;2022-11-15T07:15:55;20.02;;;9.70;;
20729;SDS011;10526;50.850;12.928;2022-11-15T07:20:35;20.02;;;9.00;;
20729;SDS011;10526;50.850;12.928;2022-11-15T07:25:16;20.23;;;8.63;;
20729;SDS011;10526;50.850;12.928;2022-11-15T07:29:57;18.88;;;8.05;;
20729;SDS011;10526;50.850;12.928;2022-11-15T07:34:37;16.65;;;7.82;;
20729;SDS011;10526;50.850;12.928;2022-11-15T07:39:18;16.75;;;7.35;;
20729;SDS011;10526;50.850;12.928;2022-11-15T07:43:58;22.23;;;9.85;;
20729;SDS011;10526;50.850;12.928;2022-11-15T07:48:40;17.13;;;7.85;;
20729;SDS011;10526;50.850;12.928;2022-11-15T07:53:24;19.77;;;8.60;;
20729;SDS011;10526;50.850;12.928;2022-11-15T07:58:05;16.85;;;8.43;;
20729;SDS011;10526;50.850;12.928;2022-11-15T08:02:49;16.88;;;7.82;;
20729;SDS011;10526;50.850;12.928;2022-11-15T08:07:30;14.80;;;7.07;;
20729;SDS011;10526;50.850;12.928;2022-11-15T08:12:11;15.75;;;7.70;;
20729;SDS011;10526;50.850;12.928;2022-11-15T08:16:52;18.63;;;7.65;;
20729;SDS011;10526;50.850;12.928;2022-11-15T08:21:33;19.08;;;7.22;;
20729;SDS011;10526;50.850;12.928;2022-11-15T08:26:15;13.30;;;6.75;;
20729;SDS011;10526;50.850;12.928;2022-11-15T08:30:56;15.13;;;7.03;;
20729;SDS011;10526;50.850;12.928;2022-11-15T08:35:37;13.80;;;6.35;;
20729;SDS011;10526;50.850;12.928;2022-11-15T08:40:17;13.73;;;5.28;;
20729;SDS011;10526;50.850;12.928;2022-11-15T08:44:59;12.73;;;4.93;;
20729;SDS011;10526;50.850;12.928;2022-11-15T08:49:40;11.27;;;4.85;;
20729;SDS011;10526;50.850;12.928;2022-11-15T08:54:20;11.30;;;4.88;;
20729;SDS011;10526;50.850;12.928;2022-11-15T08:59:01;10.48;;;4.78;;
20729;SDS011;10526;50.850;12.928;2022-11-15T09:03:41;10.93;;;4.25;;
20729;SDS011;10526;50.850;12.928;2022-11-15T09:08:23;8.65;;;3.85;;
20729;SDS011;10526;50.850;12.928;2022-11-15T09:13:24;9.85;;;4.60;;
20729;SDS011;10526;50.850;12.928;2022-11-15T09:18:05;9.30;;;4.20;;
20729;SDS011;10526;50.850;12.928;2022-11-15T09:22:45;8.73;;;3.60;;
20729;SDS011;10526;50.850;12.928;2022-11-15T09:27:27;6.85;;;3.47;;
20729;SDS011;10526;50.850;12.928;2022-11-15T09:32:10;11.80;;;3.50;;
20729;SDS011;10526;50.850;12.928;2022-11-15T09:36:51;9.98;;;3.72;;
20729;SDS011;10526;50.850;12.928;2022-11-15T09:51:47;7.03;;;2.67;;
20729;SDS011;10526;50.850;12.928;2022-11-15T09:56:22;6.68;;;2.55;;
20729;SDS011;10526;50.850;12.928;2022-11-15T10:00:56;6.70;;;2.47;;
20729;SDS011;10526;50.850;12.928;2022-11-15T10:05:22;5.85;;;2.42;;
20729;SDS011;10526;50.850;12.928;2022-11-15T10:09:51;5.40;;;2.47;;
20729;SDS011;10526;50.850;12.928;2022-11-15T10:14:50;9.45;;;2.70;;
20729;SDS011;10526;50.850;12.928;2022-11-15T10:24:26;9.90;;;2.70;;
20729;SDS011;10526;50.850;12.928;2022-11-15T10:28:54;4.75;;;2.25;;
20729;SDS011;10526;50.850;12.928;2022-11-15T10:38:04;6.75;;;2.33;;
20729;SDS011;10526;50.850;12.928;2022-11-15T10:42:28;6.45;;;2.40;;
20729;SDS011;10526;50.850;12.928;2022-11-15T10:51:22;8.30;;;2.47;;
20729;SDS011;10526;50.850;12.928;2022-11-15T10:55:52;7.95;;;2.10;;
20729;SDS011;10526;50.850;12.928;2022-11-15T11:04:49;6.38;;;2.60;;
20729;SDS011;10526;50.850;12.928;2022-11-15T11:09:21;7.53;;;2.83;;
20729;SDS011;10526;50.850;12.928;2022-11-15T11:13:55;4.88;;;2.30;;
20729;SDS011;10526;50.850;12.928;2022-11-15T11:18:37;5.72;;;2.65;;
20729;SDS011;10526;50.850;12.928;2022-11-15T11:28:50;5.18;;;1.83;;
20729;SDS011;10526;50.850;12.928;2022-11-15T11:33:24;7.00;;;1.80;;
20729;SDS011;10526;50.850;12.928;2022-11-15T11:42:58;5.88;;;2.20;;
20729;SDS011;10526;50.850;12.928;2022-11-15T11:47:39;6.05;;;2.45;;
20729;SDS011;10526;50.850;12.928;2022-11-15T11:56:36;5.68;;;2.53;;
20729;SDS011;10526;50.850;12.928;2022-11-15T12:01:08;7.40;;;2.83;;
20729;SDS011;10526;50.850;12.928;2022-11-15T12:06:01;9.30;;;3.00;;
20729;SDS011;10526;50.850;12.928;2022-11-15T12:10:30;5.50;;;2.38;;
20729;SDS011;10526;50.850;12.928;2022-11-15T12:14:57;8.40;;;3.08;;
20729;SDS011;10526;50.850;12.928;2022-11-15T12:19:33;8.55;;;3.58;;
20729;SDS011;10526;50.850;12.928;2022-11-15T12:24:01;8.68;;;3.45;;
20729;SDS011;10526;50.850;12.928;2022-11-15T12:28:45;8.73;;;3.97;;
20729;SDS011;10526;50.850;12.928;2022-11-15T12:33:34;10.77;;;4.15;;
20729;SDS011;10526;50.850;12.928;2022-11-15T12:43:43;10.57;;;4.40;;
20729;SDS011;10526;50.850;12.928;2022-11-15T12:52:39;7.18;;;2.70;;
20729;SDS011;10526;50.850;12.928;2022-11-15T12:57:48;6.15;;;2.47;;
20729;SDS011;10526;50.850;12.928;2022-11-15T13:06:53;6.38;;;2.35;;
20729;SDS011;10526;50.850;12.928;2022-11-15T13:11:42;7.70;;;2.97;;
20729;SDS011;10526;50.850;12.928;2022-11-15T13:16:09;10.05;;;2.85;;
20729;SDS011;10526;50.850;12.928;2022-11-15T13:20:32;6.53;;;2.90;;
20729;SDS011;10526;50.850;12.928;2022-11-15T13:24:54;7.47;;;3.17;;
20729;SDS011;10526;50.850;12.928;2022-11-15T13:29:17;12.50;;;3.55;;
20729;SDS011;10526;50.850;12.928;2022-11-15T13:33:41;12.77;;;3.47;;
20729;SDS011;10526;50.850;12.928;2022-11-15T13:38:04;11.60;;;3.72;;
20729;SDS011;10526;50.850;12.928;2022-11-15T13:42:26;8.63;;;3.15;;
20729;SDS011;10526;50.850;12.928;2022-11-15T13:47:00;9.15;;;3.38;;
20729;SDS011;10526;50.850;12.928;2022-11-15T13:56:16;8.75;;;3.60;;
20729;SDS011;10526;50.850;12.928;2022-11-15T14:00:40;11.35;;;4.05;;
20729;SDS011;10526;50.850;12.928;2022-11-15T14:05:18;8.98;;;3.58;;
20729;SDS011;10526;50.850;12.928;2022-11-15T14:09:43;9.82;;;3.75;;
20729;SDS011;10526;50.850;12.928;2022-11-15T14:18:42;9.50;;;3.60;;
20729;SDS011;10526;50.850;12.928;2022-11-15T14:23:23;9.25;;;3.53;;
20729;SDS011;10526;50.850;12.928;2022-11-15T14:32:59;7.85;;;3.22;;
20729;SDS011;10526;50.850;12.928;2022-11-15T14:37:22;8.25;;;3.33;;
20729;SDS011;10526;50.850;12.928;2022-11-15T14:41:46;10.88;;;3.60;;
20729;SDS011;10526;50.850;12.928;2022-11-15T14:46:08;8.95;;;3.50;;
20729;SDS011;10526;50.850;12.928;2022-11-15T14:50:31;11.63;;;3.60;;
20729;SDS011;10526;50.850;12.928;2022-11-15T14:54:54;9.30;;;3.30;;
20729;SDS011;10526;50.850;12.928;2022-11-15T14:59:18;11.02;;;4.60;;
20729;SDS011;10526;50.850;12.928;2022-11-15T15:03:40;15.15;;;5.10;;
20729;SDS011;10526;50.850;12.928;2022-11-15T15:08:03;10.95;;;4.07;;
20729;SDS011;10526;50.850;12.928;2022-11-15T15:12:26;11.07;;;4.38;;
20729;SDS011;10526;50.850;12.928;2022-11-15T15:16:48;12.57;;;4.22;;
20729;SDS011;10526;50.850;12.928;2022-11-15T15:21:17;10.70;;;3.47;;
20729;SDS011;10526;50.850;12.928;2022-11-15T15:25:56;14.93;;;4.00;;
20729;SDS011;10526;50.850;12.928;2022-11-15T15:30:19;11.18;;;4.53;;
20729;SDS011;10526;50.850;12.928;2022-11-15T15:34:41;13.15;;;4.55;;
20729;SDS011;10526;50.850;12.928;2022-11-15T15:39:03;13.82;;;4.60;;
20729;SDS011;10526;50.850;12.928;2022-11-15T15:43:25;18.88;;;5.10;;
20729;SDS011;10526;50.850;12.928;2022-11-15T15:47:47;15.73;;;5.30;;
20729;SDS011;10526;50.850;12.928;2022-11-15T15:52:11;11.98;;;4.85;;
20729;SDS011;10526;50.850;12.928;2022-11-15T15:56:33;12.35;;;5.20;;
20729;SDS011;10526;50.850;12.928;2022-11-15T16:00:54;12.15;;;4.88;;
20729;SDS011;10526;50.850;12.928;2022-11-15T16:05:17;12.60;;;4.53;;
20729;SDS011;10526;50.850;12.928;2022-11-15T16:09:39;13.15;;;4.97;;
20729;SDS011;10526;50.850;12.928;2022-11-15T16:14:21;15.45;;;5.63;;
20729;SDS011;10526;50.850;12.928;2022-11-15T16:18:43;21.27;;;8.23;;
20729;SDS011;10526;50.850;12.928;2022-11-15T16:23:06;19.33;;;6.57;;
20729;SDS011;10526;50.850;12.928;2022-11-15T16:27:30;19.80;;;7.03;;
20729;SDS011;10526;50.850;12.928;2022-11-15T16:31:53;17.10;;;7.28;;
20729;SDS011;10526;50.850;12.928;2022-11-15T16:36:25;21.42;;;8.15;;
20729;SDS011;10526;50.850;12.928;2022-11-15T16:40:51;27.88;;;10.32;;
20729;SDS011;10526;50.850;12.928;2022-11-15T16:45:12;17.88;;;7.35;;
20729;SDS011;10526;50.850;12.928;2022-11-15T16:49:34;16.55;;;6.45;;
20729;SDS011;10526;50.850;12.928;2022-11-15T16:58:29;15.57;;;4.90;;
20729;SDS011;10526;50.850;12.928;2022-11-15T17:02:51;15.20;;;5.10;;
20729;SDS011;10526;50.850;12.928;2022-11-15T17:07:14;74.15;;;21.25;;
20729;SDS011;10526;50.850;12.928;2022-11-15T17:11:35;18.92;;;6.85;;
20729;SDS011;10526;50.850;12.928;2022-11-15T17:16:07;62.60;;;26.40;;
20729;SDS011;10526;50.850;12.928;2022-11-15T17:20:32;40.22;;;12.35;;
20729;SDS011;10526;50.850;12.928;2022-11-15T17:24:54;26.90;;;10.18;;
20729;SDS011;10526;50.850;12.928;2022-11-15T17:29:15;18.98;;;8.57;;
20729;SDS011;10526;50.850;12.928;2022-11-15T17:33:38;20.85;;;10.20;;
20729;SDS011;10526;50.850;12.928;2022-11-15T17:38:01;21.42;;;10.80;;
20729;SDS011;10526;50.850;12.928;2022-11-15T17:42:23;22.38;;;10.30;;
20729;SDS011;10526;50.850;12.928;2022-11-15T17:46:45;25.02;;;10.90;;
20729;SDS011;10526;50.850;12.928;2022-11-15T17:51:07;26.83;;;12.10;;
20729;SDS011;10526;50.850;12.928;2022-11-15T17:55:32;27.92;;;12.50;;
20729;SDS011;10526;50.850;12.928;2022-11-15T17:59:54;24.55;;;11.88;;
20729;SDS011;10526;50.850;12.928;2022-11-15T18:04:16;21.58;;;9.50;;
20729;SDS011;10526;50.850;12.928;2022-11-15T18:08:39;27.75;;;13.88;;
20729;SDS011;10526;50.850;12.928;2022-11-15T18:13:02;29.65;;;14.15;;
20729;SDS011;10526;50.850;12.928;2022-11-15T18:17:24;27.23;;;14.00;;
20729;SDS011;10526;50.850;12.928;2022-11-15T18:21:46;24.70;;;11.52;;
20729;SDS011;10526;50.850;12.928;2022-11-15T18:26:17;25.83;;;11.98;;
20729;SDS011;10526;50.850;12.928;2022-11-15T18:30:47;27.15;;;12.30;;
20729;SDS011;10526;50.850;12.928;2022-11-15T18:35:09;29.25;;;11.57;;
20729;SDS011;10526;50.850;12.928;2022-11-15T18:39:31;30.00;;;12.45;;
20729;SDS011;10526;50.850;12.928;2022-11-15T18:43:54;29.27;;;12.77;;
20729;SDS011;10526;50.850;12.928;2022-11-15T18:48:18;23.77;;;11.73;;
20729;SDS011;10526;50.850;12.928;2022-11-15T18:52:40;26.65;;;12.00;;
20729;SDS011;10526;50.850;12.928;2022-11-15T18:57:02;22.38;;;12.02;;
20729;SDS011;10526;50.850;12.928;2022-11-15T19:01:28;26.48;;;13.32;;
20729;SDS011;10526;50.850;12.928;2022-11-15T19:06:01;26.35;;;12.88;;
20729;SDS011;10526;50.850;12.928;2022-11-15T19:10:28;28.67;;;14.10;;
20729;SDS011;10526;50.850;12.928;2022-11-15T19:14:50;26.58;;;13.02;;
20729;SDS011;10526;50.850;12.928;2022-11-15T19:19:15;25.90;;;13.10;;
20729;SDS011;10526;50.850;12.928;2022-11-15T19:23:40;29.63;;;13.50;;
20729;SDS011;10526;50.850;12.928;2022-11-15T19:28:03;28.58;;;13.77;;
20729;SDS011;10526;50.850;12.928;2022-11-15T19:32:26;33.30;;;14.65;;
20729;SDS011;10526;50.850;12.928;2022-11-15T19:36:48;26.60;;;13.63;;
20729;SDS011;10526;50.850;12.928;2022-11-15T19:41:13;29.10;;;13.93;;
20729;SDS011;10526;50.850;12.928;2022-11-15T19:45:37;35.80;;;14.98;;
20729;SDS011;10526;50.850;12.928;2022-11-15T19:49:59;27.60;;;12.82;;
20729;SDS011;10526;50.850;12.928;2022-11-15T19:54:21;26.35;;;12.75;;
20729;SDS011;10526;50.850;12.928;2022-11-15T19:58:44;35.53;;;14.70;;
20729;SDS011;10526;50.850;12.928;2022-11-15T20:03:06;27.88;;;13.23;;
20729;SDS011;10526;50.850;12.928;2022-11-15T20:07:30;36.80;;;15.30;;
20729;SDS011;10526;50.850;12.928;2022-11-15T20:11:52;26.08;;;14.00;;
20729;SDS011;10526;50.850;12.928;2022-11-15T20:16:15;27.88;;;14.30;;
20729;SDS011;10526;50.850;12.928;2022-11-15T20:20:42;32.67;;;14.88;;
20729;SDS011;10526;50.850;12.928;2022-11-15T20:25:05;28.75;;;14.75;;
20729;SDS011;10526;50.850;12.928;2022-11-15T20:29:27;29.00;;;14.10;;
20729;SDS011;10526;50.850;12.928;2022-11-15T20:33:48;29.08;;;13.70;;
20729;SDS011;10526;50.850;12.928;2022-11-15T20:38:11;29.40;;;14.38;;
20729;SDS011;10526;50.850;12.928;2022-11-15T20:42:33;32.35;;;15.35;;
20729;SDS011;10526;50.850;12.928;2022-11-15T20:46:55;30.45;;;13.77;;
20729;SDS011;10526;50.850;12.928;2022-11-15T20:51:17;27.33;;;13.35;;
20729;SDS011;10526;50.850;12.928;2022-11-15T20:55:40;25.92;;;13.15;;
20729;SDS011;10526;50.850;12.928;2022-11-15T21:00:07;27.20;;;13.20;;
20729;SDS011;10526;50.850;12.928;2022-11-15T21:04:30;26.98;;;13.18;;
20729;SDS011;10526;50.850;12.928;2022-11-15T21:08:52;25.70;;;11.73;;
20729;SDS011;10526;50.850;12.928;2022-11-15T21:13:34;28.25;;;14.23;;
20729;SDS011;10526;50.850;12.928;2022-11-15T21:17:57;30.58;;;14.73;;
20729;SDS011;10526;50.850;12.928;2022-11-15T21:22:19;30.00;;;14.18;;
20729;SDS011;10526;50.850;12.928;2022-11-15T21:26:41;24.38;;;12.27;;
20729;SDS011;10526;50.850;12.928;2022-11-15T21:31:02;30.00;;;13.70;;
20729;SDS011;10526;50.850;12.928;2022-11-15T21:35:24;28.40;;;14.07;;
20729;SDS011;10526;50.850;12.928;2022-11-15T21:39:46;30.85;;;15.10;;
20729;SDS011;10526;50.850;12.928;2022-11-15T21:44:08;33.78;;;14.23;;
20729;SDS011;10526;50.850;12.928;2022-11-15T21:48:32;27.48;;;13.43;;
20729;SDS011;10526;50.850;12.928;2022-11-15T21:52:56;26.08;;;14.35;;
20729;SDS011;10526;50.850;12.928;2022-11-15T21:57:18;25.50;;;14.02;;
20729;SDS011;10526;50.850;12.928;2022-11-15T22:01:41;25.70;;;12.18;;
20729;SDS011;10526;50.850;12.928;2022-11-15T22:06:22;21.95;;;10.65;;
20729;SDS011;10526;50.850;12.928;2022-11-15T22:10:47;22.42;;;10.23;;
20729;SDS011;10526;50.850;12.928;2022-11-15T22:15:11;23.13;;;10.63;;
20729;SDS011;10526;50.850;12.928;2022-11-15T22:19:32;27.25;;;11.73;;
20729;SDS011;10526;50.850;12.928;2022-11-15T22:23:54;19.23;;;10.52;;
20729;SDS011;10526;50.850;12.928;2022-11-15T22:28:16;22.48;;;10.73;;
20729;SDS011;10526;50.850;12.928;2022-11-15T22:32:38;20.63;;;9.80;;
20729;SDS011;10526;50.850;12.928;2022-11-15T22:37:00;25.98;;;9.70;;
20729;SDS011;10526;50.850;12.928;2022-11-15T22:41:42;19.65;;;9.77;;
20729;SDS011;10526;50.850;12.928;2022-11-15T22:46:04;20.25;;;9.23;;
20729;SDS011;10526;50.850;12.928;2022-11-15T22:50:26;22.63;;;10.25;;
20729;SDS011;10526;50.850;12.928;2022-11-15T22:54:48;22.27;;;9.38;;
20729;SDS011;10526;50.850;12.928;2022-11-15T22:59:10;20.20;;;10.05;;
20729;SDS011;10526;50.850;12.928;2022-11-15T23:03:33;24.50;;;10.52;;
20729;SDS011;10526;50.850;12.928;2022-11-15T23:07:55;19.10;;;9.35;;
20729;SDS011;10526;50.850;12.928;2022-11-15T23:12:17;20.80;;;9.88;;
20729;SDS011;10526;50.850;12.928;2022-11-15T23:16:57;25.02;;;12.52;;
20729;SDS011;10526;50.850;12.928;2022-11-15T23:21:21;20.95;;;9.38;;
20729;SDS011;10526;50.850;12.928;2022-11-15T23:26:04;24.83;;;9.85;;
20729;SDS011;10526;50.850;12.928;2022-11-15T23:30:26;20.85;;;10.50;;
20729;SDS011;10526;50.850;12.928;2022-11-15T23:35:07;21.50;;;10.13;;
20729;SDS011;10526;50.850;12.928;2022-11-15T23:39:29;26.38;;;11.30;;
20729;SDS011;10526;50.850;12.928;2022-11-15T23:43:51;19.65;;;10.25;;
20729;SDS011;10526;50.850;12.928;2022-11-15T23:48:13;23.10;;;11.63;;
20729;SDS011;10526;50.850;12.928;2022-11-15T23:52:35;21.05;;;10.98;;
20729;SDS011;10526;50.850;12.928;2022-11-15T23:56:57;20.48;;;10.93;;
